Flight Track Log - Related Links

Times and Time Zones

All times are in EDT time to prevent confusion due to time zone crossing. See the VNR104 flight status page for this flight to view local times or setup timezone preferences in your user account.

Time Position Orientation Groundspeed Altitude Reporting Facility
EDT Latitude Longitude Course Direction KTS MPH feet Rate Location/Type
Mon 03:01:18 PM 45.8983 -108.6011 356° North 210 242 7,300  Level Salt Lake Center
Mon 03:02:20 PM 45.8922 -108.5158 96° East 228 262 9,200 1,742 Climbing Salt Lake Center
Mon 03:03:22 PM 45.8750 -108.4131 103° East 245 282 10,900 1,854 Climbing Salt Lake Center
Mon 03:04:23 PM 45.8608 -108.3067 101° East 270 311 13,000 2,146 Climbing Salt Lake Center
Mon 03:05:00 PM 45.7150 -107.8527 101° East  Level Estimated
Mon 03:05:25 PM 45.8447 -108.1947 102° East 268 308 15,300  Level Salt Lake Center
Mon 03:06:27 PM 45.8294 -108.0897 102° East 270 311 17,400 1,935 Climbing Salt Lake Center
Mon 03:07:29 PM 45.8139 -107.9817 102° East 281 323 19,300 1,597 Climbing Salt Lake Center
Mon 03:08:31 PM 45.7986 -107.8678 101° East 293 337 20,700 1,512 Climbing Salt Lake Center
Mon 03:09:32 PM 45.7775 -107.7272 102° East 319 367 22,400 1,512 Climbing Salt Lake Center
Mon 03:10:34 PM 45.7600 -107.6058 102° East 325 374 23,800 1,500 Climbing Salt Lake Center
Mon 03:11:36 PM 45.7386 -107.4633 102° East 328 377 25,500 1,548 Climbing Salt Lake Center
Mon 03:12:38 PM 45.7206 -107.3422 102° East 325 374 27,000 1,452 Climbing Salt Lake Center
Mon 03:13:40 PM 45.7033 -107.2219 102° East 322 371 28,500 1,268 Climbing Salt Lake Center
Mon 03:14:41 PM 45.6825 -107.0833 102° East 320 368 29,600 829 Climbing Salt Lake Center
Mon 03:15:43 PM 45.6625 -106.9550 103° East 334 384 30,200 677 Climbing Salt Lake Center
Mon 03:16:45 PM 45.6367 -106.7978 103° East 354 407 31,000 387 Climbing Salt Lake Center
Mon 03:17:47 PM 45.6147 -106.6564 102° East 368 423 31,000  Level Salt Lake Center
Mon 03:18:49 PM 45.5911 -106.4897 101° East 380 437 31,000  Level Salt Lake Center
Mon 03:19:51 PM 45.5678 -106.3392 102° East 399 459 31,000  Level Salt Lake Center
Mon 03:20:52 PM 45.5392 -106.1608 103° East 410 472 31,000  Level Salt Lake Center
Mon 03:21:54 PM 45.5147 -106.0086 103° East 411 473 31,000  Level Salt Lake Center
Mon 03:22:56 PM 45.4894 -105.8556 103° East 413 475 31,000  Level Salt Lake Center
Mon 03:23:58 PM 45.4603 -105.6778 103° East 412 474 31,000  Level Salt Lake Center
Mon 03:25:00 PM 45.4347 -105.5253 103° East 413 475 31,000  Level Salt Lake Center
Mon 03:26:01 PM 45.4053 -105.3483 103° East 412 474 31,000  Level Salt Lake Center
Mon 03:27:03 PM 45.3797 -105.1969 103° East 411 473 31,000  Level Salt Lake Center
Mon 03:28:05 PM 45.3492 -105.0217 104° East 409 471 31,000  Level Salt Lake Center
Mon 03:29:07 PM 45.3242 -104.8708 103° East 409 471 31,000  Level Salt Lake Center
Mon 03:30:08 PM 45.2981 -104.7217 104° East 407 468 31,000  Level Salt Lake Center
Mon 03:31:10 PM 45.2661 -104.5453 104° East 412 474 31,000  Level Salt Lake Center
Mon 03:32:12 PM 45.2397 -104.3992 104° East 409 471 31,000  Level Salt Lake Center
Mon 03:33:14 PM 45.2125 -104.2447 104° East 406 467 31,000  Level Salt Lake Center
Mon 03:34:15 PM 45.1825 -104.0775 104° East 406 467 31,000  Level Salt Lake Center
Mon 03:35:17 PM 45.1517 -103.9053 104° East 404 465 31,000  Level Salt Lake Center
Mon 03:36:19 PM 45.1242 -103.7569 105° East 405 466 31,000  Level Salt Lake Center
Mon 03:36:36 PM 45.1175 -103.7250 106° East 405 466 31,000  Level Denver Center
Mon 03:37:21 PM 45.0928 -103.5831 104° East 407 468 31,000  Level Salt Lake Center
Mon 03:38:22 PM 45.0650 -103.4353 105° East 408 470 31,000  Level Salt Lake Center
Mon 03:39:24 PM 45.0375 -103.2864 105° East 409 471 31,000  Level Salt Lake Center
Mon 03:40:41 PM 44.9931 -103.0769 107° East 409 471 31,000  Level Minneapolis Center
Mon 03:41:43 PM 44.9631 -102.9217 105° East 410 472 31,000  Level Minneapolis Center
Mon 03:42:45 PM 44.9331 -102.7675 105° East 410 472 31,000  Level Minneapolis Center
Mon 03:43:47 PM 44.9053 -102.6128 104° East 409 471 31,000  Level Minneapolis Center
Mon 03:44:48 PM 44.8744 -102.4583 106° East 409 471 31,000  Level Minneapolis Center
Mon 03:45:50 PM 44.8442 -102.3036 105° East 410 472 31,000  Level Minneapolis Center
Mon 03:46:52 PM 44.8056 -102.1181 106° East 411 473 31,000  Level Minneapolis Center
Mon 03:47:54 PM 44.7744 -101.9636 106° East 411 473 31,000  Level Minneapolis Center
Mon 03:48:55 PM 44.7444 -101.8106 105° East 410 472 31,000  Level Minneapolis Center
Mon 03:49:57 PM 44.7139 -101.6586 106° East 408 470 31,000  Level Minneapolis Center
Mon 03:50:59 PM 44.6833 -101.5081 106° East 405 466 31,000  Level Minneapolis Center
Mon 03:52:01 PM 44.6531 -101.3567 106° East 404 465 31,000  Level Minneapolis Center
Mon 03:53:02 PM 44.6208 -101.2056 107° East 405 466 31,000  Level Minneapolis Center
Mon 03:54:04 PM 44.5817 -101.0242 107° East 405 466 31,000  Level Minneapolis Center
Mon 03:55:05 PM 44.5556 -100.9025 107° East 406 467 31,000  Level Minneapolis Center
Mon 03:56:07 PM 44.5239 -100.7506 106° East 408 470 31,000  Level Minneapolis Center
Mon 03:57:09 PM 44.4842 -100.5697 107° East 407 468 31,000  Level Minneapolis Center
Mon 03:58:11 PM 44.4514 -100.4200 107° East 405 466 31,000  Level Minneapolis Center
Mon 03:59:13 PM 44.4192 -100.2697 107° East 405 466 31,000  Level Minneapolis Center
Mon 04:00:14 PM 44.3797 -100.0911 107° East 404 465 31,000  Level Minneapolis Center
Mon 04:01:16 PM 44.3472 -99.9414 107° East 405 466 31,000  Level Minneapolis Center
Mon 04:02:18 PM 44.3144 -99.7919 107° East 405 466 31,000  Level Minneapolis Center
Mon 04:03:20 PM 44.2808 -99.6425 107° East 406 467 31,000  Level Minneapolis Center
Mon 04:04:33 PM 44.2464 -99.4933 108° East 406 467 31,000  Level Minneapolis Center
Mon 04:05:36 PM 44.2069 -99.3133 107° East 406 467 31,000  Level Minneapolis Center
Mon 04:06:37 PM 44.1633 -99.1361 109° East 405 466 31,000  Level Minneapolis Center
Mon 04:07:39 PM 44.1297 -98.9864 107° East 406 467 31,000  Level Minneapolis Center
Mon 04:08:41 PM 44.0944 -98.8367 108° East 407 468 31,000  Level Minneapolis Center
Mon 04:09:43 PM 44.0611 -98.6894 107° East 407 468 31,000  Level Minneapolis Center
Mon 04:10:44 PM 44.0317 -98.5719 109° East 405 466 31,000 -244 Level Minneapolis Center
Mon 04:11:46 PM 43.9903 -98.3906 108° East 411 473 30,500 -1,742 Descending Minneapolis Center
Mon 04:12:48 PM 43.9458 -98.2053 108° East 421 484 27,400 -2,758 Descending Minneapolis Center
Mon 04:13:50 PM 43.9100 -98.0569 108° East 411 473 24,800 -2,516 Descending Minneapolis Center
Mon 04:14:52 PM 43.8742 -97.9122 109° East 402 463 22,200 -2,371 Descending Minneapolis Center
Mon 04:15:54 PM 43.8392 -97.7717 109° East 393 452 19,900 -2,293 Descending Minneapolis Center
Mon 04:16:55 PM 43.8064 -97.6394 109° East 375 432 17,500 -2,195 Descending Minneapolis Center
Mon 04:17:57 PM 43.7756 -97.5117 108° East 358 412 15,400 -2,081 Descending Minneapolis Center
Mon 04:18:59 PM 43.7439 -97.3869 109° East 349 402 13,200 -2,274 Descending Minneapolis Center
Mon 04:20:01 PM 43.7081 -97.2414 109° East 339 390 10,700 -2,081 Descending Minneapolis Center
Mon 04:21:03 PM 43.6772 -97.1214 110° East 337 388 8,900 -1,742 Descending Minneapolis Center
Mon 04:22:05 PM 43.6500 -97.0064 108° East 330 380 7,100 -1,742 Descending Minneapolis Center
Mon 04:23:07 PM 43.6486 -96.8925 91° East 314 361 5,300 -1,561 Descending Minneapolis Center
Mon 04:24:08 PM 43.6492 -96.7850 90° East 299 344 3,900 -1,244 Descending Minneapolis Center
Mon 04:25:22 PM 43.6378 -96.7139 102° East 215 247 2,500 -920 Descending Minneapolis Center
Mon 04:26:25 PM 43.6056 -96.7186 186° South 152 175 1,800 96 Descending Minneapolis Center
Mon 04:27:27 PM 43.5789 -96.7736 236° Southwest 153 176 2,700 242 Climbing Minneapolis Center
Mon 04:28:29 PM 43.6219 -96.8089 329° Northwest 175 201 2,300 -97 Descending Minneapolis Center
Mon 04:29:31 PM 43.6364 -96.7472 72° East 180 207 2,500 -194 Climbing Minneapolis Center
Mon 04:30:33 PM 43.6078 -96.7192 145° Southeast 160 184 1,900 -581 Descending Minneapolis Center
Mon 04:32:00 PM 43.5820 -96.7419 115° Southeast  Level Estimated
Mon 04:39:00 PM 43.5820 -96.7419 115° Southeast  Level Estimated

Login

Don't have an account? Register now (free) for customized features, flight alerts, and more!